createdAt,value
2023-03-03T00:01:18.222Z,102840.69
2023-03-03T00:03:45.192Z,102840.75
2023-03-03T00:06:14.606Z,102843.41
2023-03-03T00:08:42.120Z,102843.50
2023-03-03T00:11:09.857Z,102844.44
2023-03-03T00:13:56.942Z,102844.47
2023-03-03T00:16:38.546Z,102848.00
2023-03-03T00:19:15.306Z,102855.13
2023-03-03T00:21:45.848Z,102855.16
2023-03-03T00:24:15.404Z,102858.69
2023-03-03T00:26:46.714Z,102851.78
2023-03-03T00:29:36.119Z,102862.38
2023-03-03T00:32:23.396Z,102856.25
2023-03-03T00:34:52.178Z,102865.09
2023-03-03T00:37:34.918Z,102866.88
2023-03-03T00:40:13.880Z,102873.09
2023-03-03T00:42:41.276Z,102868.75
2023-03-03T00:45:30.047Z,102868.78
2023-03-03T00:47:57.940Z,102867.94
2023-03-03T00:50:29.791Z,102871.47
2023-03-03T00:53:04.708Z,102868.88
2023-03-03T00:55:32.063Z,102867.13
2023-03-03T00:57:59.101Z,102873.28
2023-03-03T01:00:26.041Z,102885.66
2023-03-03T01:02:53.378Z,102876.91
2023-03-03T01:05:20.860Z,102878.72
2023-03-03T01:07:47.877Z,102884.00
2023-03-03T01:10:14.808Z,102878.75
2023-03-03T01:12:42.029Z,102879.63
2023-03-03T01:15:11.050Z,102874.41
2023-03-03T01:17:40.136Z,102871.81
2023-03-03T01:20:08.835Z,102869.22
2023-03-03T01:22:36.322Z,102866.56
2023-03-03T01:25:06.636Z,102867.44
2023-03-03T01:27:35.425Z,102860.44
2023-03-03T01:30:03.312Z,102876.31
2023-03-03T01:32:30.366Z,102873.66
2023-03-03T01:34:57.615Z,102868.41
2023-03-03T01:37:24.488Z,102860.50
2023-03-03T01:39:52.859Z,102864.94
2023-03-03T01:42:20.881Z,102864.94
2023-03-03T01:44:48.339Z,102865.81
2023-03-03T01:47:21.461Z,102864.94
2023-03-03T01:50:04.461Z,102850.84
2023-03-03T01:52:38.401Z,102853.50
2023-03-03T01:55:13.352Z,102863.19
2023-03-03T01:57:46.276Z,102854.41
2023-03-03T02:00:14.030Z,102854.47
2023-03-03T02:02:43.878Z,102852.66
2023-03-03T02:05:11.507Z,102844.78
2023-03-03T02:07:38.823Z,102861.50
2023-03-03T02:10:15.491Z,102855.34
2023-03-03T02:12:55.570Z,102857.97
2023-03-03T02:15:32.468Z,102859.75
2023-03-03T02:18:02.044Z,102845.69
2023-03-03T02:20:50.651Z,102856.22
2023-03-03T02:23:33.448Z,102850.94
2023-03-03T02:26:07.638Z,102857.16
2023-03-03T02:28:36.347Z,102858.91
2023-03-03T02:31:06.193Z,102856.31
2023-03-03T02:33:33.194Z,102858.97
2023-03-03T02:36:00.081Z,102863.31
2023-03-03T02:39:04.227Z,102863.34
2023-03-03T02:41:41.383Z,102861.63
2023-03-03T02:44:13.054Z,102863.34
2023-03-03T02:46:43.152Z,102858.97
2023-03-03T02:49:12.220Z,102868.63
2023-03-03T02:51:40.182Z,102867.75
2023-03-03T02:54:09.003Z,102863.34
2023-03-03T02:56:36.567Z,102860.75
2023-03-03T02:59:04.640Z,102858.97
2023-03-03T03:01:32.430Z,102857.25
2023-03-03T03:03:59.296Z,102865.13
2023-03-03T03:06:26.157Z,102863.41
2023-03-03T03:08:53.078Z,102866.00
2023-03-03T03:11:19.925Z,102864.28
2023-03-03T03:13:46.761Z,102871.31
2023-03-03T03:16:13.615Z,102869.53
2023-03-03T03:18:40.423Z,102867.75
2023-03-03T03:21:09.875Z,102873.03
2023-03-03T03:23:36.957Z,102868.69
2023-03-03T03:26:04.364Z,102870.41
2023-03-03T03:28:31.591Z,102880.91
2023-03-03T03:30:58.624Z,102877.41
2023-03-03T03:33:25.570Z,102872.16
2023-03-03T03:35:52.429Z,102875.69
2023-03-03T03:38:19.425Z,102878.28
2023-03-03T03:40:46.223Z,102871.19
2023-03-03T03:43:13.179Z,102869.44
2023-03-03T03:45:43.166Z,102876.47
2023-03-03T03:48:10.234Z,102872.06
2023-03-03T03:50:37.939Z,102879.06
2023-03-03T03:53:05.814Z,102877.34
2023-03-03T03:55:33.787Z,102881.75
2023-03-03T03:58:00.679Z,102872.13
2023-03-03T04:00:27.525Z,102874.72
2023-03-03T04:02:54.519Z,102876.47
2023-03-03T04:05:21.564Z,102879.06
2023-03-03T04:07:48.513Z,102873.78
2023-03-03T04:10:15.488Z,102872.00
2023-03-03T04:12:42.281Z,102878.16
2023-03-03T04:15:11.932Z,102872.00
2023-03-03T04:17:39.177Z,102873.75
2023-03-03T04:20:07.543Z,102873.75
2023-03-03T04:22:36.255Z,102868.50
2023-03-03T04:25:07.534Z,102874.63
2023-03-03T04:27:35.125Z,102872.81
2023-03-03T04:30:03.412Z,102869.31
2023-03-03T04:32:30.838Z,102873.69
2023-03-03T04:35:07.256Z,102874.56
2023-03-03T04:37:35.037Z,102871.94
2023-03-03T04:40:01.907Z,102874.56
2023-03-03T04:42:29.192Z,102868.41
2023-03-03T04:44:56.134Z,102876.34
2023-03-03T04:47:23.004Z,102873.66
2023-03-03T04:49:49.908Z,102867.53
2023-03-03T04:52:16.824Z,102867.53
2023-03-03T04:54:43.877Z,102868.38
2023-03-03T04:57:10.716Z,102866.59
2023-03-03T04:59:37.584Z,102858.69
2023-03-03T05:02:07.354Z,102865.69
2023-03-03T05:04:34.838Z,102865.69
2023-03-03T05:07:01.900Z,102869.22
2023-03-03T05:09:28.911Z,102866.56
2023-03-03T05:11:55.933Z,102860.44
2023-03-03T05:14:22.865Z,102865.69
2023-03-03T05:16:49.764Z,102865.69
2023-03-03T05:19:16.677Z,102870.03
2023-03-03T05:21:43.540Z,102866.53
2023-03-03T05:24:11.761Z,102870.88
2023-03-03T05:26:39.624Z,102865.59
2023-03-03T05:29:06.916Z,102867.16
2023-03-03T05:31:34.052Z,102861.75
2023-03-03T05:34:00.931Z,102858.91
2023-03-03T05:36:28.105Z,102853.34
2023-03-03T05:38:55.083Z,102861.13
2023-03-03T05:41:22.332Z,102861.06
2023-03-03T05:43:49.196Z,102861.84
2023-03-03T05:46:17.100Z,102866.16
2023-03-03T05:48:44.080Z,102862.69
2023-03-03T05:51:11.424Z,102860.03
2023-03-03T05:53:38.307Z,102863.47
2023-03-03T05:56:05.556Z,102863.34
2023-03-03T05:58:32.470Z,102872.09
2023-03-03T06:00:59.428Z,102869.44
2023-03-03T06:03:26.342Z,102864.97
2023-03-03T06:05:54.000Z,102859.59
2023-03-03T06:08:20.867Z,102860.41
2023-03-03T06:10:47.909Z,102866.47
2023-03-03T06:13:15.078Z,102861.13
2023-03-03T06:15:42.011Z,102856.63
2023-03-03T06:18:09.102Z,102860.94
2023-03-03T06:20:36.982Z,102867.00
2023-03-03T06:23:04.012Z,102867.75
2023-03-03T06:25:30.879Z,102866.78
2023-03-03T06:27:58.427Z,102867.53
2023-03-03T06:30:27.245Z,102867.41
2023-03-03T06:32:55.011Z,102874.38
2023-03-03T06:35:21.818Z,102873.47
2023-03-03T06:37:51.067Z,102877.06
2023-03-03T06:40:18.177Z,102872.56
2023-03-03T06:42:45.244Z,102878.75
2023-03-03T06:45:12.891Z,102869.09
2023-03-03T06:47:39.737Z,102871.69
2023-03-03T06:50:07.588Z,102876.09
2023-03-03T06:52:34.464Z,102877.75
2023-03-03T06:55:10.331Z,102880.38
2023-03-03T06:57:37.395Z,102884.72
2023-03-03T07:00:24.431Z,102886.50
2023-03-03T07:03:00.200Z,102891.06
2023-03-03T07:05:29.273Z,102892.63
2023-03-03T07:07:57.491Z,102883.22
2023-03-03T07:10:30.494Z,102889.78
2023-03-03T07:13:07.212Z,102904.13
2023-03-03T07:15:36.377Z,102900.53
2023-03-03T07:18:05.714Z,102907.59
2023-03-03T07:20:42.247Z,102902.34
2023-03-03T07:23:34.501Z,102907.59
2023-03-03T07:26:01.373Z,102912.94
2023-03-03T07:28:33.373Z,102915.50
2023-03-03T07:31:00.436Z,102921.63
2023-03-03T07:33:29.339Z,102919.00
2023-03-03T07:35:59.048Z,102927.84
2023-03-03T07:38:39.775Z,102923.44
2023-03-03T07:41:17.380Z,102926.09
2023-03-03T07:43:55.177Z,102931.41
2023-03-03T07:46:41.825Z,102931.44
2023-03-03T07:49:30.883Z,102931.44
2023-03-03T07:52:00.201Z,102934.13
2023-03-03T07:54:43.832Z,102937.69
2023-03-03T07:57:13.710Z,102940.31
2023-03-03T08:00:16.868Z,102947.31
2023-03-03T08:03:04.118Z,102949.06
2023-03-03T08:05:47.346Z,102946.47
2023-03-03T08:08:31.438Z,102944.69
2023-03-03T08:11:02.610Z,102950.84
2023-03-03T08:13:39.529Z,102948.13
2023-03-03T08:16:09.882Z,102951.72
2023-03-03T08:18:49.743Z,102957.94
2023-03-03T08:21:20.862Z,102956.16
2023-03-03T08:23:52.384Z,102957.03
2023-03-03T08:26:20.856Z,102958.81
2023-03-03T08:28:48.257Z,102960.59
2023-03-03T08:31:27.799Z,102963.25
2023-03-03T08:34:02.239Z,102959.69
2023-03-03T08:36:30.280Z,102960.63
2023-03-03T08:38:57.660Z,102972.00
2023-03-03T08:41:25.322Z,102967.63
2023-03-03T08:43:52.493Z,102976.44
2023-03-03T08:46:20.115Z,102976.44
2023-03-03T08:48:47.478Z,102973.84
2023-03-03T08:51:14.552Z,102980.91
2023-03-03T08:53:42.324Z,102978.25
2023-03-03T08:56:10.765Z,102980.06
2023-03-03T08:58:38.466Z,102981.78
2023-03-03T09:01:06.502Z,102985.31
2023-03-03T09:03:33.814Z,102989.75
2023-03-03T09:06:01.180Z,102991.47
2023-03-03T09:08:28.949Z,102990.59
2023-03-03T09:10:57.319Z,102992.38
2023-03-03T09:13:24.723Z,102992.41
2023-03-03T09:15:52.158Z,102991.47
2023-03-03T09:18:26.756Z,102988.84
2023-03-03T09:20:57.912Z,102987.06
2023-03-03T09:23:28.719Z,102983.50
2023-03-03T09:25:55.938Z,102987.03
2023-03-03T09:28:30.039Z,102980.00
2023-03-03T09:31:01.089Z,102988.84
2023-03-03T09:33:41.926Z,102995.88
2023-03-03T09:36:27.019Z,102991.44
2023-03-03T09:38:56.545Z,102980.84
2023-03-03T09:41:54.696Z,102995.88
2023-03-03T09:44:55.670Z,102994.06
2023-03-03T09:47:29.627Z,102991.44
2023-03-03T09:50:19.000Z,102988.78
2023-03-03T09:53:16.590Z,102983.50
2023-03-03T09:56:06.678Z,102988.78
2023-03-03T09:58:55.023Z,102986.13
2023-03-03T10:01:48.415Z,102981.72
2023-03-03T10:04:25.810Z,102983.50
2023-03-03T10:07:03.501Z,102982.63
2023-03-03T10:10:01.905Z,102987.03
2023-03-03T10:12:48.410Z,102984.38
2023-03-03T10:15:33.937Z,102992.34
2023-03-03T10:18:32.240Z,102983.50
2023-03-03T10:21:13.238Z,102983.53
2023-03-03T10:23:59.324Z,102978.31
2023-03-03T10:27:12.921Z,102987.06
2023-03-03T10:29:59.925Z,102988.84
2023-03-03T10:32:37.172Z,102990.63
2023-03-03T10:35:20.929Z,102992.38
2023-03-03T10:37:50.838Z,102981.84
2023-03-03T10:40:35.749Z,102986.28
2023-03-03T10:43:31.240Z,102985.34
2023-03-03T10:46:40.431Z,102993.25
2023-03-03T10:49:28.623Z,102997.66
2023-03-03T10:52:32.053Z,102999.41
2023-03-03T10:55:30.227Z,103006.50
2023-03-03T10:58:33.345Z,103000.25
2023-03-03T11:01:01.361Z,102999.41
2023-03-03T11:03:57.849Z,103000.28
2023-03-03T11:06:44.424Z,103001.16
2023-03-03T11:09:50.140Z,103003.81
2023-03-03T11:12:49.466Z,103007.34
2023-03-03T11:15:31.681Z,103004.75
2023-03-03T11:18:32.036Z,103007.38
2023-03-03T11:21:24.542Z,103011.78
2023-03-03T11:24:06.605Z,103011.75
2023-03-03T11:26:45.530Z,103005.63
2023-03-03T11:29:28.147Z,103009.97
2023-03-03T11:31:55.409Z,103011.75
2023-03-03T11:34:25.268Z,103003.81
2023-03-03T11:37:04.126Z,103009.09
2023-03-03T11:39:31.488Z,103009.97
2023-03-03T11:42:25.792Z,103007.34
2023-03-03T11:45:00.510Z,103012.63
2023-03-03T11:47:40.471Z,103009.16
2023-03-03T11:50:36.731Z,103011.75
2023-03-03T11:53:23.372Z,103009.09
2023-03-03T11:56:11.150Z,103006.50
2023-03-03T11:59:00.752Z,103004.69
2023-03-03T12:01:39.904Z,103009.97
2023-03-03T12:04:23.256Z,103009.09
2023-03-03T12:07:21.762Z,103001.16
2023-03-03T12:10:23.654Z,103006.44
2023-03-03T12:13:23.510Z,103002.00
2023-03-03T12:16:29.156Z,103001.09
2023-03-03T12:19:05.294Z,102994.13
2023-03-03T12:22:01.267Z,103001.22
2023-03-03T12:24:54.318Z,102997.66
2023-03-03T12:27:42.899Z,102988.00
2023-03-03T12:30:28.792Z,102981.84
2023-03-03T12:33:37.278Z,102985.34
2023-03-03T12:36:20.583Z,102987.94
2023-03-03T12:39:03.446Z,102988.88
2023-03-03T12:41:46.557Z,102987.94
2023-03-03T12:44:27.304Z,102986.19
2023-03-03T12:47:05.820Z,102981.78
2023-03-03T12:50:06.561Z,102989.75
2023-03-03T12:52:56.022Z,102981.00
2023-03-03T12:55:34.378Z,102981.81
2023-03-03T12:58:31.478Z,102976.59
2023-03-03T13:01:20.226Z,102969.53
2023-03-03T13:03:56.170Z,102973.06
2023-03-03T13:06:32.458Z,102978.34
2023-03-03T13:09:18.555Z,102972.19
2023-03-03T13:11:53.675Z,102969.53
2023-03-03T13:15:05.800Z,102957.25
2023-03-03T13:17:49.402Z,102959.84
2023-03-03T13:20:25.662Z,102951.06
2023-03-03T13:23:08.338Z,102953.69
2023-03-03T13:25:38.348Z,102951.03
2023-03-03T13:28:29.178Z,102951.91
2023-03-03T13:31:20.339Z,102948.38
2023-03-03T13:33:55.987Z,102941.34
2023-03-03T13:36:52.870Z,102930.81
2023-03-03T13:40:06.096Z,102932.53
2023-03-03T13:42:38.913Z,102923.75
2023-03-03T13:45:27.728Z,102926.34
2023-03-03T13:48:26.196Z,102923.66
2023-03-03T13:50:58.531Z,102910.47
2023-03-03T13:53:41.964Z,102901.72
2023-03-03T13:56:48.155Z,102902.50
2023-03-03T13:59:31.121Z,102898.13
2023-03-03T14:02:41.012Z,102895.44
2023-03-03T14:05:16.648Z,102905.16
2023-03-03T14:08:15.080Z,102898.00
2023-03-03T14:11:26.598Z,102893.53
2023-03-03T14:14:12.778Z,102881.19
2023-03-03T14:17:03.279Z,102894.41
2023-03-03T14:19:53.277Z,102878.50
2023-03-03T14:22:34.946Z,102890.94
2023-03-03T14:25:08.253Z,102881.19
2023-03-03T14:27:40.780Z,102872.38
2023-03-03T14:30:23.394Z,102874.09
2023-03-03T14:33:20.754Z,102875.84
2023-03-03T14:35:51.845Z,102866.19
2023-03-03T14:38:25.560Z,102866.16
2023-03-03T14:41:10.446Z,102862.69
2023-03-03T14:43:40.774Z,102867.09
2023-03-03T14:46:32.610Z,102869.72
2023-03-03T14:49:03.681Z,102863.66
2023-03-03T14:51:41.575Z,102859.25
2023-03-03T14:54:21.541Z,102858.38
2023-03-03T14:57:19.665Z,102856.56
2023-03-03T15:00:11.244Z,102850.44
2023-03-03T15:02:43.801Z,102846.09
2023-03-03T15:05:22.686Z,102846.97
2023-03-03T15:08:09.377Z,102844.28
2023-03-03T15:10:42.422Z,102846.97
2023-03-03T15:13:22.142Z,102844.31
2023-03-03T15:16:04.581Z,102839.94
2023-03-03T15:18:34.189Z,102832.88
2023-03-03T15:21:19.247Z,102824.09
2023-03-03T15:23:59.093Z,102821.47
2023-03-03T15:26:57.828Z,102830.16
2023-03-03T15:29:28.755Z,102827.59
2023-03-03T15:32:31.017Z,102824.94
2023-03-03T15:35:12.919Z,102824.94
2023-03-03T15:38:15.436Z,102818.69
2023-03-03T15:40:50.537Z,102819.59
2023-03-03T15:43:33.694Z,102820.53
2023-03-03T15:46:29.986Z,102824.94
2023-03-03T15:49:38.468Z,102831.09
2023-03-03T15:52:23.928Z,102817.78
2023-03-03T15:54:54.674Z,102816.94
2023-03-03T15:58:11.610Z,102813.47
2023-03-03T16:00:50.924Z,102810.88
2023-03-03T16:03:22.357Z,102817.00
2023-03-03T16:05:50.008Z,102819.91
2023-03-03T16:08:23.182Z,102815.69
2023-03-03T16:11:10.005Z,102819.50
2023-03-03T16:14:22.007Z,102816.19
2023-03-03T16:16:58.385Z,102811.13
2023-03-03T16:19:41.598Z,102812.25
2023-03-03T16:22:39.795Z,102814.97
2023-03-03T16:25:26.112Z,102813.41
2023-03-03T16:28:06.089Z,102816.84
2023-03-03T16:30:47.583Z,102819.56
2023-03-03T16:33:14.796Z,102815.91
2023-03-03T16:36:23.797Z,102821.81
2023-03-03T16:38:59.653Z,102809.41
2023-03-03T16:41:38.259Z,102813.69
2023-03-03T16:44:31.653Z,102812.66
2023-03-03T16:47:20.243Z,102810.81
2023-03-03T16:49:48.254Z,102813.38
2023-03-03T16:52:25.226Z,102820.31
2023-03-03T16:55:13.944Z,102820.25
2023-03-03T16:57:51.706Z,102822.00
2023-03-03T17:00:24.522Z,102816.66
2023-03-03T17:03:23.812Z,102829.00
2023-03-03T17:06:11.655Z,102830.81
2023-03-03T17:08:50.608Z,102823.72
2023-03-03T17:11:36.532Z,102820.19
2023-03-03T17:14:21.785Z,102820.13
2023-03-03T17:17:01.439Z,102824.53
2023-03-03T17:19:57.609Z,102819.19
2023-03-03T17:22:40.675Z,102810.38
2023-03-03T17:25:07.867Z,102813.03
2023-03-03T17:27:56.872Z,102815.66
2023-03-03T17:30:46.150Z,102811.31
2023-03-03T17:33:31.304Z,102816.41
2023-03-03T17:36:33.815Z,102809.25
2023-03-03T17:39:20.314Z,102819.75
2023-03-03T17:42:46.334Z,102822.41
2023-03-03T17:45:17.431Z,102812.50
2023-03-03T17:47:56.733Z,102815.59
2023-03-03T17:50:41.921Z,102817.59
2023-03-03T17:53:09.042Z,102825.72
2023-03-03T17:56:03.258Z,102818.88
2023-03-03T17:58:43.235Z,102821.56
2023-03-03T18:01:31.711Z,102817.25
2023-03-03T18:04:30.744Z,102830.22
2023-03-03T18:07:18.631Z,102830.00
2023-03-03T18:09:51.801Z,102834.28
2023-03-03T18:12:53.881Z,102828.84
2023-03-03T18:16:11.125Z,102841.94
2023-03-03T18:18:42.020Z,102832.19
2023-03-03T18:21:11.796Z,102834.75
2023-03-03T18:23:44.582Z,102837.47
2023-03-03T18:26:30.425Z,102835.69
2023-03-03T18:29:28.442Z,102826.78
2023-03-03T18:31:59.016Z,102837.22
2023-03-03T18:34:35.571Z,102842.50
2023-03-03T18:37:23.214Z,102849.22
2023-03-03T18:40:11.087Z,102852.13
2023-03-03T18:42:47.466Z,102843.00
2023-03-03T18:45:20.551Z,102850.72
2023-03-03T18:48:15.283Z,102850.56
2023-03-03T18:50:48.582Z,102857.44
2023-03-03T18:53:52.694Z,102854.59
2023-03-03T18:56:56.368Z,102859.22
2023-03-03T18:59:36.248Z,102852.16
2023-03-03T19:02:18.523Z,102851.00
2023-03-03T19:04:55.711Z,102850.00
2023-03-03T19:07:30.658Z,102855.84
2023-03-03T19:10:02.172Z,102850.50
2023-03-03T19:13:09.261Z,102855.63
2023-03-03T19:15:46.680Z,102857.22
2023-03-03T19:18:34.098Z,102851.88
2023-03-03T19:21:07.222Z,102862.41
2023-03-03T19:24:00.496Z,102854.34
2023-03-03T19:26:33.826Z,102858.56
2023-03-03T19:29:32.057Z,102859.34
2023-03-03T19:32:44.440Z,102866.28
2023-03-03T19:35:23.888Z,102867.94
2023-03-03T19:37:51.320Z,102859.00
2023-03-03T19:40:43.240Z,102867.75
2023-03-03T19:43:40.386Z,102866.81
2023-03-03T19:46:26.695Z,102869.41
2023-03-03T19:49:00.696Z,102871.22
2023-03-03T19:52:00.548Z,102872.84
2023-03-03T19:54:47.016Z,102871.16
2023-03-03T19:57:36.154Z,102866.81
2023-03-03T20:00:22.267Z,102866.75
2023-03-03T20:03:16.312Z,102868.47
2023-03-03T20:05:51.440Z,102865.88
2023-03-03T20:08:39.610Z,102875.47
2023-03-03T20:11:19.509Z,102875.34
2023-03-03T20:14:01.530Z,102866.28
2023-03-03T20:16:57.216Z,102864.38
2023-03-03T20:19:59.215Z,102870.41
2023-03-03T20:22:51.356Z,102871.06
2023-03-03T20:25:34.128Z,102866.31
2023-03-03T20:28:43.199Z,102865.19
2023-03-03T20:32:04.129Z,102863.09
2023-03-03T20:34:35.683Z,102863.72
2023-03-03T20:38:01.459Z,102860.84
2023-03-03T20:40:43.275Z,102861.56
2023-03-03T20:43:32.041Z,102868.44
2023-03-03T20:46:17.807Z,102866.50
2023-03-03T20:49:22.001Z,102872.31
2023-03-03T20:52:26.698Z,102875.72
2023-03-03T20:55:24.509Z,102877.28
2023-03-03T20:58:09.510Z,102872.69
2023-03-03T21:00:50.130Z,102879.69
2023-03-03T21:03:35.385Z,102875.13
2023-03-03T21:06:10.088Z,102880.34
2023-03-03T21:08:44.356Z,102884.69
2023-03-03T21:11:38.885Z,102882.16
2023-03-03T21:14:36.860Z,102888.97
2023-03-03T21:17:27.903Z,102893.31
2023-03-03T21:19:55.068Z,102886.19
2023-03-03T21:22:22.518Z,102882.56
2023-03-03T21:24:59.317Z,102887.91
2023-03-03T21:27:34.101Z,102883.50
2023-03-03T21:30:17.853Z,102898.50
2023-03-03T21:32:48.330Z,102886.13
2023-03-03T21:35:18.953Z,102887.88
2023-03-03T21:37:54.193Z,102886.97
2023-03-03T21:40:28.019Z,102891.31
2023-03-03T21:42:58.224Z,102901.06
2023-03-03T21:45:26.358Z,102910.78
2023-03-03T21:48:02.038Z,102900.25
2023-03-03T21:50:33.492Z,102910.81
2023-03-03T21:53:00.756Z,102907.34
2023-03-03T21:55:28.042Z,102916.16
2023-03-03T21:57:56.802Z,102925.94
2023-03-03T22:00:24.104Z,102925.03
2023-03-03T22:02:53.098Z,102918.09
2023-03-03T22:05:20.342Z,102920.72
2023-03-03T22:07:47.511Z,102927.16
2023-03-03T22:10:14.864Z,102930.00
2023-03-03T22:12:42.296Z,102923.16
2023-03-03T22:15:09.744Z,102925.97
2023-03-03T22:17:39.799Z,102932.91
2023-03-03T22:20:07.750Z,102925.84
2023-03-03T22:22:34.916Z,102929.50
2023-03-03T22:25:02.285Z,102930.41
2023-03-03T22:27:29.519Z,102931.38
2023-03-03T22:29:56.882Z,102930.88
2023-03-03T22:32:24.099Z,102933.63
2023-03-03T22:34:51.259Z,102922.53
2023-03-03T22:37:18.251Z,102923.66
2023-03-03T22:39:45.970Z,102920.19
2023-03-03T22:42:13.761Z,102928.00
2023-03-03T22:44:41.233Z,102925.28
2023-03-03T22:47:08.592Z,102924.50
2023-03-03T22:49:35.886Z,102921.13
2023-03-03T22:52:03.094Z,102917.72
2023-03-03T22:54:30.610Z,102923.16
2023-03-03T22:56:57.766Z,102928.53
2023-03-03T22:59:24.954Z,102919.00
2023-03-03T23:01:52.684Z,102912.88
2023-03-03T23:04:19.935Z,102919.97
2023-03-03T23:06:47.660Z,102917.47
2023-03-03T23:09:14.615Z,102916.72
2023-03-03T23:11:41.723Z,102923.81
2023-03-03T23:14:09.467Z,102923.03
2023-03-03T23:16:36.436Z,102923.16
2023-03-03T23:19:03.505Z,102923.22
2023-03-03T23:21:30.390Z,102925.03
2023-03-03T23:23:57.545Z,102919.00
2023-03-03T23:26:24.512Z,102914.75
2023-03-03T23:28:51.599Z,102912.97
2023-03-03T23:31:18.701Z,102910.34
2023-03-03T23:33:45.642Z,102913.09
2023-03-03T23:36:12.703Z,102910.53
2023-03-03T23:38:41.831Z,102912.34
2023-03-03T23:41:09.916Z,102923.78
2023-03-03T23:43:36.791Z,102923.81
2023-03-03T23:46:03.767Z,102918.63
2023-03-03T23:48:30.718Z,102918.72
2023-03-03T23:50:57.571Z,102923.16
2023-03-03T23:53:24.496Z,102917.06
2023-03-03T23:55:51.335Z,102921.53
2023-03-03T23:58:18.220Z,102920.69
